createdAt,value
2018-05-14T00:02:04.273Z,96.30
2018-05-14T00:04:08.268Z,96.10
2018-05-14T00:06:14.736Z,95.90
2018-05-14T00:08:18.949Z,95.80
2018-05-14T00:10:23.532Z,96.00
2018-05-14T00:12:28.891Z,96.10
2018-05-14T00:14:33.158Z,96.20
2018-05-14T00:16:38.477Z,96.90
2018-05-14T00:18:44.332Z,96.90
2018-05-14T00:20:49.794Z,96.80
2018-05-14T00:22:54.772Z,96.80
2018-05-14T00:24:59.888Z,96.80
2018-05-14T00:27:03.855Z,96.60
2018-05-14T00:29:07.968Z,96.60
2018-05-14T00:31:12.185Z,96.70
2018-05-14T00:33:16.129Z,96.80
2018-05-14T00:35:21.153Z,96.80
2018-05-14T00:37:25.497Z,96.80
2018-05-14T00:39:30.024Z,96.60
2018-05-14T00:41:33.965Z,96.60
2018-05-14T00:43:37.938Z,96.10
2018-05-14T00:45:42.409Z,96.10
2018-05-14T00:47:46.396Z,96.30
2018-05-14T00:49:51.633Z,96.20
2018-05-14T00:51:55.720Z,96.30
2018-05-14T00:54:00.556Z,96.00
2018-05-14T00:56:04.761Z,95.80
2018-05-14T00:58:10.033Z,95.50
2018-05-14T01:00:17.344Z,95.50
2018-05-14T01:02:22.055Z,95.20
2018-05-14T01:04:26.202Z,95.10
2018-05-14T01:06:30.333Z,95.20
2018-05-14T01:08:34.460Z,94.80
2018-05-14T01:10:38.533Z,95.50
2018-05-14T01:12:42.532Z,95.40
2018-05-14T01:14:46.864Z,95.60
2018-05-14T01:16:51.710Z,96.20
2018-05-14T01:18:55.898Z,96.20
2018-05-14T01:21:00.060Z,96.10
2018-05-14T01:23:04.198Z,96.00
2018-05-14T01:25:08.172Z,95.20
2018-05-14T01:27:12.181Z,95.40
2018-05-14T01:29:16.254Z,95.50
2018-05-14T01:31:20.480Z,95.40
2018-05-14T01:33:25.795Z,95.60
2018-05-14T01:35:31.033Z,95.80
2018-05-14T01:37:35.733Z,96.00
2018-05-14T01:39:40.396Z,96.00
2018-05-14T01:41:45.583Z,96.00
2018-05-14T01:43:49.654Z,95.90
2018-05-14T01:45:54.195Z,95.80
2018-05-14T01:47:58.249Z,95.90
2018-05-14T01:50:02.304Z,95.60
2018-05-14T01:52:06.388Z,95.70
2018-05-14T01:54:29.715Z,95.90
2018-05-14T01:56:34.021Z,95.90
2018-05-14T01:58:39.547Z,96.00
2018-05-14T02:00:43.576Z,95.70
2018-05-14T02:02:47.559Z,96.00
2018-05-14T02:04:51.615Z,96.00
2018-05-14T02:06:56.453Z,96.00
2018-05-14T02:09:01.256Z,96.00
2018-05-14T02:11:06.135Z,96.00
2018-05-14T02:13:10.100Z,95.90
2018-05-14T02:15:15.456Z,95.80
2018-05-14T02:17:20.340Z,95.80
2018-05-14T02:19:24.360Z,95.80
2018-05-14T02:21:28.292Z,96.00
2018-05-14T02:23:33.504Z,95.90
2018-05-14T02:25:37.937Z,95.90
2018-05-14T02:27:41.942Z,95.80
2018-05-14T02:29:46.652Z,95.70
2018-05-14T02:31:50.712Z,95.80
2018-05-14T02:33:55.128Z,95.80
2018-05-14T02:35:59.279Z,95.60
2018-05-14T02:38:03.241Z,95.60
2018-05-14T02:40:08.436Z,95.70
2018-05-14T02:42:12.451Z,96.00
2018-05-14T02:44:17.552Z,95.80
2018-05-14T02:46:22.537Z,95.90
2018-05-14T02:48:28.026Z,95.80
2018-05-14T02:50:33.581Z,95.80
2018-05-14T02:52:37.867Z,95.70
2018-05-14T02:54:41.851Z,95.80
2018-05-14T02:56:45.828Z,95.50
2018-05-14T02:58:50.046Z,95.50
2018-05-14T03:00:54.442Z,95.40
2018-05-14T03:02:58.963Z,95.40
2018-05-14T03:05:02.990Z,95.40
2018-05-14T03:07:06.973Z,95.20
2018-05-14T03:09:10.978Z,95.20
2018-05-14T03:11:14.943Z,95.20
2018-05-14T03:13:18.922Z,95.20
2018-05-14T03:15:22.845Z,95.10
2018-05-14T03:17:26.794Z,95.00
2018-05-14T03:19:30.949Z,95.00
2018-05-14T03:21:36.345Z,94.90
2018-05-14T03:23:41.581Z,94.80
2018-05-14T03:25:45.841Z,94.80
2018-05-14T03:27:49.842Z,94.70
2018-05-14T03:29:55.056Z,94.80
2018-05-14T03:31:59.046Z,94.70
2018-05-14T03:34:02.979Z,94.60
2018-05-14T03:36:06.900Z,94.80
2018-05-14T03:38:11.635Z,94.40
2018-05-14T03:40:15.816Z,94.40
2018-05-14T03:42:19.797Z,94.20
2018-05-14T03:44:24.058Z,94.40
2018-05-14T03:46:28.155Z,94.00
2018-05-14T03:48:32.579Z,93.80
2018-05-14T03:50:39.857Z,93.50
2018-05-14T03:52:43.909Z,93.50
2018-05-14T03:54:47.850Z,93.70
2018-05-14T03:56:52.236Z,93.50
2018-05-14T04:01:14.112Z,93.80
2018-05-14T04:05:33.320Z,93.90
2018-05-14T04:07:38.588Z,94.20
2018-05-14T04:09:42.868Z,94.90
2018-05-14T04:11:47.753Z,95.50
2018-05-14T04:13:53.791Z,95.40
2018-05-14T04:16:03.594Z,95.50
2018-05-14T04:18:12.576Z,95.60
2018-05-14T04:20:17.632Z,95.60
2018-05-14T04:22:22.142Z,95.80
2018-05-14T04:24:26.566Z,95.60
2018-05-14T04:26:32.551Z,95.40
2018-05-14T04:28:39.614Z,95.60
2018-05-14T04:30:43.938Z,95.40
2018-05-14T04:32:48.976Z,95.40
2018-05-14T04:34:55.879Z,95.20
2018-05-14T04:37:00.814Z,95.20
2018-05-14T04:39:05.671Z,94.90
2018-05-14T04:41:09.879Z,94.70
2018-05-14T04:43:13.983Z,94.70
2018-05-14T04:45:18.004Z,94.20
2018-05-14T04:47:22.566Z,94.10
2018-05-14T04:49:26.983Z,94.30
2018-05-14T04:51:33.448Z,94.20
2018-05-14T04:53:39.938Z,94.00
2018-05-14T04:55:44.296Z,94.20
2018-05-14T04:57:48.443Z,94.30
2018-05-14T04:59:52.920Z,94.40
2018-05-14T05:01:59.782Z,94.20
2018-05-14T05:04:03.837Z,94.20
2018-05-14T05:06:15.032Z,93.80
2018-05-14T05:08:23.000Z,93.80
2018-05-14T05:10:27.708Z,93.90
2018-05-14T05:12:31.905Z,93.80
2018-05-14T05:14:36.492Z,93.60
2018-05-14T05:16:44.691Z,93.60
2018-05-14T05:18:50.752Z,93.50
2018-05-14T05:20:54.831Z,93.30
2018-05-14T05:22:59.459Z,93.60
2018-05-14T05:25:04.580Z,93.20
2018-05-14T05:27:09.406Z,93.20
2018-05-14T05:29:14.176Z,93.00
2018-05-14T05:33:51.705Z,92.50
2018-05-14T05:38:18.435Z,92.30
2018-05-14T05:40:22.524Z,92.10
2018-05-14T05:42:33.077Z,91.70
2018-05-14T05:46:49.450Z,92.50
2018-05-14T05:49:03.286Z,92.10
2018-05-14T05:51:09.483Z,92.20
2018-05-14T05:53:16.286Z,92.10
2018-05-14T05:55:22.481Z,92.00
2018-05-14T05:57:34.573Z,92.00
2018-05-14T05:59:47.905Z,91.60
2018-05-14T06:06:34.970Z,91.00
2018-05-14T06:08:42.392Z,91.30
2018-05-14T06:10:54.772Z,91.60
2018-05-14T06:13:14.073Z,91.90
2018-05-14T06:15:32.186Z,91.70
2018-05-14T06:20:00.777Z,91.20
2018-05-14T06:22:06.968Z,91.20
2018-05-14T06:24:17.976Z,90.90
2018-05-14T06:26:24.022Z,90.80
2018-05-14T06:28:30.239Z,90.40
2018-05-14T06:30:40.624Z,90.80
2018-05-14T06:32:44.915Z,90.60
2018-05-14T06:34:51.667Z,90.60
2018-05-14T06:36:59.259Z,90.20
2018-05-14T06:39:06.047Z,89.30
2018-05-14T06:41:11.252Z,86.40
2018-05-14T06:43:25.228Z,84.90
2018-05-14T06:45:46.072Z,86.10
2018-05-14T06:48:11.153Z,84.40
2018-05-14T06:52:53.389Z,85.20
2018-05-14T06:55:07.275Z,85.20
2018-05-14T06:57:12.579Z,87.00
2018-05-14T06:59:19.514Z,87.30
2018-05-14T07:01:31.263Z,85.30
2018-05-14T07:03:53.084Z,86.20
2018-05-14T07:06:02.516Z,85.30
2018-05-14T07:08:06.999Z,85.60
2018-05-14T07:10:19.946Z,85.40
2018-05-14T07:12:37.884Z,84.10
2018-05-14T07:14:51.438Z,84.20
2018-05-14T07:17:00.389Z,84.20
2018-05-14T07:19:13.310Z,84.40
2018-05-14T07:21:26.660Z,84.40
2018-05-14T07:23:38.508Z,84.00
2018-05-14T07:25:51.865Z,84.00
2018-05-14T07:28:04.091Z,83.70
2018-05-14T07:37:12.981Z,82.60
2018-05-14T07:44:03.241Z,82.30
2018-05-14T07:46:22.372Z,82.20
2018-05-14T07:50:48.857Z,82.20
2018-05-14T07:52:58.371Z,82.00
2018-05-14T07:55:04.733Z,80.80
2018-05-14T07:57:15.040Z,80.40
2018-05-14T07:59:24.296Z,79.90
2018-05-14T08:08:17.475Z,77.70
2018-05-14T08:10:23.475Z,77.40
2018-05-14T08:12:32.235Z,77.90
2018-05-14T08:14:39.838Z,76.20
2018-05-14T08:19:04.282Z,75.60
2018-05-14T08:21:08.689Z,74.80
2018-05-14T08:23:14.545Z,73.90
2018-05-14T08:25:19.372Z,73.90
2018-05-14T08:27:27.171Z,75.00
2018-05-14T08:29:42.458Z,74.80
2018-05-14T08:31:47.892Z,75.90
2018-05-14T08:33:52.212Z,77.20
2018-05-14T08:35:57.758Z,78.40
2018-05-14T08:38:02.725Z,80.80
2018-05-14T08:40:11.085Z,84.00
2018-05-14T08:42:20.690Z,87.60
2018-05-14T08:44:29.200Z,88.50
2018-05-14T08:46:35.089Z,90.10
2018-05-14T08:48:40.614Z,90.90
2018-05-14T08:50:46.308Z,91.10
2018-05-14T08:52:50.513Z,91.20
2018-05-14T08:54:54.663Z,91.40
2018-05-14T08:56:58.739Z,91.60
2018-05-14T08:59:02.944Z,92.00
2018-05-14T09:01:07.263Z,92.50
2018-05-14T09:03:13.873Z,92.40
2018-05-14T09:05:35.068Z,92.20
2018-05-14T09:07:43.164Z,92.50
2018-05-14T09:09:48.343Z,92.50
2018-05-14T09:11:54.803Z,92.50
2018-05-14T09:14:07.313Z,92.10
2018-05-14T09:18:28.315Z,92.10
2018-05-14T09:20:38.655Z,91.80
2018-05-14T09:22:52.028Z,91.90
2018-05-14T09:25:01.424Z,92.10
2018-05-14T09:27:06.194Z,92.20
2018-05-14T09:29:10.776Z,91.70
2018-05-14T09:31:17.317Z,91.60
2018-05-14T09:33:23.912Z,91.60
2018-05-14T09:35:30.208Z,91.50
2018-05-14T09:37:44.586Z,91.90
2018-05-14T09:39:49.495Z,91.70
2018-05-14T09:41:53.635Z,91.90
2018-05-14T09:44:01.782Z,91.70
2018-05-14T09:46:15.675Z,92.00
2018-05-14T09:48:24.116Z,91.60
2018-05-14T09:50:33.719Z,91.40
2018-05-14T09:52:47.029Z,91.30
2018-05-14T09:54:55.795Z,91.00
2018-05-14T09:57:04.813Z,90.60
2018-05-14T09:59:15.476Z,90.60
2018-05-14T10:01:28.520Z,90.60
2018-05-14T10:03:34.380Z,91.10
2018-05-14T10:05:51.241Z,90.10
2018-05-14T10:10:14.978Z,88.30
2018-05-14T10:14:43.049Z,86.10
2018-05-14T10:16:54.833Z,87.80
2018-05-14T10:19:03.954Z,85.60
2018-05-14T10:21:12.135Z,85.50
2018-05-14T10:23:21.089Z,84.70
2018-05-14T10:25:28.057Z,83.80
2018-05-14T10:27:32.403Z,81.80
2018-05-14T10:34:23.917Z,81.50
2018-05-14T10:36:29.876Z,82.40
2018-05-14T10:38:43.020Z,82.90
2018-05-14T10:41:20.596Z,82.70
2018-05-14T10:43:30.277Z,76.80
2018-05-14T10:45:43.943Z,73.40
2018-05-14T10:47:58.896Z,73.20
2018-05-14T10:50:04.712Z,70.80
2018-05-14T10:52:19.959Z,71.90
2018-05-14T10:54:24.322Z,72.20
2018-05-14T10:56:30.391Z,69.60
2018-05-14T10:58:39.489Z,68.20
2018-05-14T11:03:09.448Z,66.60
2018-05-14T11:05:17.494Z,66.60
2018-05-14T11:07:23.854Z,64.20
2018-05-14T11:12:00.741Z,64.40
2018-05-14T11:14:17.664Z,62.70
2018-05-14T11:16:26.171Z,61.80
2018-05-14T11:18:36.565Z,61.20
2018-05-14T11:20:50.765Z,59.90
2018-05-14T11:22:58.011Z,58.70
2018-05-14T11:27:13.700Z,57.20
2018-05-14T11:29:23.599Z,57.30
2018-05-14T11:31:27.616Z,56.20
2018-05-14T11:33:31.935Z,53.30
2018-05-14T11:35:42.072Z,53.00
2018-05-14T11:37:48.318Z,51.50
2018-05-14T11:39:56.430Z,52.00
2018-05-14T11:42:00.510Z,53.10
2018-05-14T11:44:07.776Z,50.00
2018-05-14T11:46:15.823Z,51.10
2018-05-14T11:50:46.262Z,50.20
2018-05-14T11:52:56.252Z,50.70
2018-05-14T11:55:05.419Z,52.10
2018-05-14T11:57:29.986Z,50.60
2018-05-14T11:59:44.899Z,50.10
2018-05-14T12:01:55.216Z,49.30
2018-05-14T12:04:01.195Z,50.00
2018-05-14T12:06:09.604Z,50.60
2018-05-14T12:08:17.664Z,49.90
2018-05-14T12:10:32.465Z,49.40
2018-05-14T12:12:41.315Z,48.20
2018-05-14T12:14:50.873Z,47.30
2018-05-14T12:16:57.542Z,46.50
2018-05-14T12:19:06.048Z,45.30
2018-05-14T12:21:11.435Z,44.50
2018-05-14T12:23:18.735Z,44.40
2018-05-14T12:25:27.101Z,42.40
2018-05-14T12:27:31.744Z,42.30
2018-05-14T12:29:40.737Z,45.60
2018-05-14T12:31:49.291Z,45.80
2018-05-14T12:33:59.694Z,46.40
2018-05-14T12:36:07.045Z,45.90
2018-05-14T12:38:13.725Z,46.30
2018-05-14T12:40:22.366Z,43.90
2018-05-14T12:42:32.213Z,43.10
2018-05-14T12:44:36.395Z,43.40
2018-05-14T12:46:52.303Z,42.60
2018-05-14T12:51:22.355Z,43.40
2018-05-14T12:55:46.819Z,40.50
2018-05-14T12:57:54.698Z,38.00
2018-05-14T13:02:16.487Z,39.10
2018-05-14T13:04:24.563Z,40.40
2018-05-14T13:06:29.316Z,39.10
2018-05-14T13:08:34.137Z,39.10
2018-05-14T13:10:39.492Z,40.20
2018-05-14T13:12:47.085Z,38.60
2018-05-14T13:14:51.922Z,38.40
2018-05-14T13:17:00.037Z,37.60
2018-05-14T13:19:08.966Z,37.70
2018-05-14T13:21:16.278Z,35.90
2018-05-14T13:25:40.500Z,38.00
2018-05-14T13:27:48.372Z,42.20
2018-05-14T13:30:04.286Z,45.90
2018-05-14T13:32:09.174Z,45.10
2018-05-14T13:34:14.271Z,49.20
2018-05-14T13:36:31.297Z,51.40
2018-05-14T13:38:42.918Z,64.90
2018-05-14T13:40:50.731Z,64.70
2018-05-14T13:43:08.826Z,75.10
2018-05-14T13:45:22.148Z,75.90
2018-05-14T13:47:32.788Z,78.80
2018-05-14T13:49:39.388Z,75.80
2018-05-14T13:51:44.297Z,75.70
2018-05-14T13:53:53.996Z,75.90
2018-05-14T13:55:58.831Z,76.10
2018-05-14T13:58:04.825Z,76.60
2018-05-14T14:02:37.696Z,79.90
2018-05-14T14:07:13.786Z,81.40
2018-05-14T14:09:27.803Z,82.20
2018-05-14T14:11:38.569Z,84.60
2018-05-14T14:20:55.335Z,79.20
2018-05-14T14:30:09.897Z,77.50
2018-05-14T14:37:03.283Z,81.60
2018-05-14T14:58:09.448Z,80.50
2018-05-14T15:00:25.897Z,82.50
2018-05-14T15:02:35.117Z,82.50
2018-05-14T15:09:20.068Z,85.20
2018-05-14T15:11:35.895Z,86.60
2018-05-14T15:13:48.798Z,85.50
2018-05-14T15:25:34.552Z,90.10
2018-05-14T15:32:11.965Z,90.40
2018-05-14T15:34:25.539Z,90.60
2018-05-14T15:36:32.959Z,90.50
2018-05-14T15:38:42.592Z,90.50
2018-05-14T15:40:58.006Z,90.20
2018-05-14T15:43:05.129Z,90.50
2018-05-14T15:47:27.229Z,90.20
2018-05-14T15:49:42.026Z,90.50
2018-05-14T15:56:27.088Z,88.60
2018-05-14T15:58:40.493Z,84.90
2018-05-14T16:03:16.127Z,84.40
2018-05-14T16:07:44.189Z,82.60
2018-05-14T16:12:17.999Z,83.80
2018-05-14T16:14:24.595Z,83.80
2018-05-14T16:16:38.950Z,82.80
2018-05-14T16:18:44.917Z,80.20
2018-05-14T16:23:06.589Z,77.10
2018-05-14T16:25:10.943Z,77.40
2018-05-14T16:27:22.216Z,77.00
2018-05-14T16:29:37.070Z,77.50
2018-05-14T16:36:29.169Z,68.40
2018-05-14T16:38:43.812Z,66.20
2018-05-14T16:40:52.410Z,66.20
2018-05-14T16:43:04.794Z,65.40
2018-05-14T16:45:13.886Z,65.50
2018-05-14T16:47:20.318Z,64.20
2018-05-14T16:49:30.035Z,65.20
2018-05-14T16:51:44.055Z,63.50
2018-05-14T16:53:53.230Z,63.00
2018-05-14T16:56:06.857Z,62.00
2018-05-14T16:58:13.557Z,59.60
2018-05-14T17:02:28.776Z,59.30
2018-05-14T17:04:39.314Z,57.80
2018-05-14T17:06:47.718Z,56.90
2018-05-14T17:08:51.837Z,54.50
2018-05-14T17:10:58.674Z,55.40
2018-05-14T17:13:09.283Z,55.50
2018-05-14T17:15:23.151Z,53.80
2018-05-14T17:19:41.877Z,52.70
2018-05-14T17:21:46.872Z,51.40
2018-05-14T17:23:58.281Z,51.40
2018-05-14T17:26:05.708Z,51.00
2018-05-14T17:28:10.970Z,50.80
2018-05-14T17:30:20.296Z,48.70
2018-05-14T17:32:27.933Z,48.60
2018-05-14T17:34:34.669Z,46.80
2018-05-14T17:36:51.686Z,47.10
2018-05-14T17:39:08.316Z,46.90
2018-05-14T17:41:20.415Z,46.70
2018-05-14T17:43:36.750Z,46.30
2018-05-14T17:45:45.056Z,45.80
2018-05-14T17:47:49.706Z,47.20
2018-05-14T17:50:01.630Z,47.50
2018-05-14T17:52:20.629Z,48.20
2018-05-14T17:54:26.228Z,48.70
2018-05-14T17:56:30.384Z,49.40
2018-05-14T17:58:42.588Z,48.60
2018-05-14T18:00:49.079Z,49.20
2018-05-14T18:02:57.435Z,48.90
2018-05-14T18:05:04.957Z,47.80
2018-05-14T18:07:15.336Z,47.30
2018-05-14T18:09:21.579Z,46.60
2018-05-14T18:11:29.962Z,46.00
2018-05-14T18:13:36.064Z,45.20
2018-05-14T18:15:41.784Z,45.00
2018-05-14T18:17:56.208Z,45.00
2018-05-14T18:20:05.513Z,45.20
2018-05-14T18:22:13.339Z,45.50
2018-05-14T18:24:18.559Z,45.30
2018-05-14T18:26:26.037Z,45.30
2018-05-14T18:28:34.338Z,45.10
2018-05-14T18:30:39.399Z,44.90
2018-05-14T18:32:50.310Z,46.10
2018-05-14T18:35:03.574Z,46.10
2018-05-14T18:37:11.197Z,45.70
2018-05-14T18:39:16.047Z,45.90
2018-05-14T18:41:20.987Z,45.60
2018-05-14T18:43:27.336Z,46.10
2018-05-14T18:45:32.440Z,46.40
2018-05-14T18:47:38.480Z,47.10
2018-05-14T18:49:49.529Z,47.10
2018-05-14T18:52:08.989Z,47.20
2018-05-14T18:54:16.908Z,47.80
2018-05-14T18:56:26.201Z,48.20
2018-05-14T18:58:30.768Z,48.80
2018-05-14T19:00:42.240Z,48.70
2018-05-14T19:02:54.561Z,49.10
2018-05-14T19:04:59.736Z,49.00
2018-05-14T19:07:06.205Z,49.00
2018-05-14T19:09:10.333Z,48.50
2018-05-14T19:13:37.482Z,48.40
2018-05-14T19:20:03.331Z,48.20
2018-05-14T19:22:08.244Z,48.10
2018-05-14T19:24:15.645Z,48.50
2018-05-14T19:26:26.627Z,48.10
2018-05-14T19:28:34.739Z,48.10
2018-05-14T19:30:44.132Z,48.30
2018-05-14T19:32:48.915Z,48.30
2018-05-14T19:36:06.170Z,48.80
2018-05-14T19:40:59.438Z,49.80
2018-05-14T19:43:04.840Z,50.00
2018-05-14T19:45:13.863Z,50.00
2018-05-14T19:47:22.077Z,50.80
2018-05-14T19:49:28.545Z,50.50
2018-05-14T19:51:36.330Z,51.10
2018-05-14T19:53:41.266Z,50.90
2018-05-14T19:55:50.327Z,49.80
2018-05-14T19:57:57.065Z,50.00
2018-05-14T20:00:07.767Z,49.90
2018-05-14T20:02:16.157Z,49.40
2018-05-14T20:04:27.841Z,49.30
2018-05-14T20:06:31.810Z,49.60
2018-05-14T20:08:37.168Z,49.90
2018-05-14T20:10:43.403Z,50.50
2018-05-14T20:12:53.796Z,50.90
2018-05-14T20:14:59.544Z,50.80
2018-05-14T20:17:03.934Z,50.80
2018-05-14T20:19:08.468Z,50.90
2018-05-14T20:21:17.563Z,50.70
2018-05-14T20:23:28.484Z,50.80
2018-05-14T20:25:33.427Z,51.00
2018-05-14T20:27:43.648Z,50.30
2018-05-14T20:29:48.799Z,50.20
2018-05-14T20:34:02.328Z,50.10
2018-05-14T20:36:13.489Z,50.00
2018-05-14T20:38:21.132Z,49.30
2018-05-14T20:40:25.978Z,48.90
2018-05-14T20:42:31.099Z,48.60
2018-05-14T20:44:35.321Z,48.20
2018-05-14T20:46:40.156Z,48.20
2018-05-14T20:48:46.145Z,48.10
2018-05-14T20:50:52.101Z,48.10
2018-05-14T20:52:57.381Z,48.40
2018-05-14T20:55:07.651Z,48.10
2018-05-14T20:59:40.711Z,48.60
2018-05-14T21:01:44.723Z,49.10
2018-05-14T21:03:51.105Z,49.10
2018-05-14T21:05:55.097Z,48.90
2018-05-14T21:07:59.583Z,49.10
2018-05-14T21:10:03.548Z,48.90
2018-05-14T21:12:09.615Z,49.00
2018-05-14T21:14:14.769Z,49.00
2018-05-14T21:16:21.185Z,48.60
2018-05-14T21:18:26.656Z,48.60
2018-05-14T21:20:35.952Z,48.60
2018-05-14T21:22:49.741Z,48.40
2018-05-14T21:24:54.031Z,47.90
2018-05-14T21:26:58.396Z,48.00
2018-05-14T21:29:07.112Z,48.10
2018-05-14T21:31:11.712Z,48.00
2018-05-14T21:33:19.062Z,47.80
2018-05-14T21:35:26.444Z,47.70
2018-05-14T21:37:31.311Z,47.90
2018-05-14T21:39:35.400Z,47.80
2018-05-14T21:41:39.669Z,47.50
2018-05-14T21:43:44.847Z,47.50
2018-05-14T21:45:49.613Z,47.80
2018-05-14T21:47:54.801Z,47.90
2018-05-14T21:50:00.483Z,47.90
2018-05-14T21:52:15.906Z,47.80
2018-05-14T21:54:23.632Z,47.70
2018-05-14T21:56:27.737Z,47.70
2018-05-14T21:58:33.429Z,47.90
2018-05-14T22:00:37.384Z,47.50
2018-05-14T22:02:47.609Z,47.20
2018-05-14T22:21:05.529Z,47.10
2018-05-14T22:23:13.232Z,47.30
2018-05-14T22:25:22.923Z,47.10
2018-05-14T22:27:31.069Z,46.70
2018-05-14T22:29:37.648Z,46.40
2018-05-14T22:45:18.782Z,46.40
2018-05-14T22:47:24.805Z,46.00
2018-05-14T22:49:31.753Z,45.80
2018-05-14T22:52:28.363Z,45.70
2018-05-14T22:56:16.014Z,45.90
2018-05-14T23:05:59.067Z,45.60
2018-05-14T23:08:51.573Z,46.60
2018-05-14T23:19:35.404Z,46.90
2018-05-14T23:21:46.422Z,46.80
2018-05-14T23:24:39.337Z,47.10
2018-05-14T23:26:47.417Z,47.80
2018-05-14T23:28:52.988Z,47.70
2018-05-14T23:35:44.455Z,47.90
2018-05-14T23:38:11.332Z,47.70
